Notice: Undefined index: language in /home/spanairv/public_html/vam/index.php on line 25
Spanair Virtual

 INFORMACIÓN METAR y TAF
METAR FOR LEMG
ADDS - METARS form results

(0038 UTC 25 April 2018)
Data provider http://aviationweather.gov/adds/metars/
 
METAR text: LEMG 250030Z 30005KT 9999 SCT030 16/14 Q1014 NOSIG
Conditions at: LEMG (MALAGA (CIV/MIL), ES) observed 0030 UTC 25 April 2018
Temperature: 16.0°C (61°F)
Dewpoint: 14.0°C (57°F) [RH = 88%]
Pressure (altimeter): 29.94 inches Hg (1014.0 mb)
Winds: from the WNW (300 degrees) at 6 MPH (5 knots; 2.6 m/s)
Visibility: 6 or more miles (10+ km)
Ceiling: at least 12,000 feet AGL
Clouds: scattered clouds at 3000 feet AGL
Weather: no significant weather observed at this time

METAR text: LEMG 250000Z 28005KT 9999 SCT030 17/14 Q1015 NOSIG
Conditions at: LEMG (MALAGA (CIV/MIL), ES) observed 0000 UTC 25 April 2018
Temperature: 17.0°C (63°F)
Dewpoint: 14.0°C (57°F) [RH = 82%]
Pressure (altimeter): 29.97 inches Hg (1015.0 mb)
Winds: from the W (280 degrees) at 6 MPH (5 knots; 2.6 m/s)
Visibility: 6 or more miles (10+ km)
Ceiling: at least 12,000 feet AGL
Clouds: scattered clouds at 3000 feet AGL
Weather: no significant weather observed at this time

Forecast for: LEMG (MALAGA (CIV/MIL), ES)
Text: TAF LEMG 242300Z 2500/2524 VRB03KT 9000 FEW030 TX21/2514Z TN15/2506Z
Forecast period: 0000 UTC 25 April 2018 to 0000 UTC 26 April 2018
Forecast type: FROM: standard forecast or significant change
Winds: variable direction winds at 3 MPH (3 knots; 1.6 m/s)
Visibility: 6 miles (9 km)
Clouds: few clouds at 3000 feet AGL
Weather: no significant weather forecast for this period
Forecast for: LEMG (MALAGA (CIV/MIL), ES)
Text: TAF LEMG 242300Z 2500/2524 VRB03KT 9000 FEW030 TX21/2514Z TN15/2506Z
Forecast period: 0000 UTC 25 April 2018 to 0000 UTC 26 April 2018
Forecast type: FROM: standard forecast or significant change
Winds: variable direction winds at 3 MPH (3 knots; 1.6 m/s)
Visibility: 6 miles (9 km)
Clouds: few clouds at 3000 feet AGL
Weather: no significant weather forecast for this period
Forecast for: LEMG (MALAGA (CIV/MIL), ES)
Text: TAF LEMG 242300Z 2500/2524 VRB03KT 9000 FEW030 TX21/2514Z TN15/2506Z
Forecast period: 0000 to 0800 UTC 25 April 2018
Forecast type: BECOMING: Conditions expected to become as follows by 0300 UTC 25 April 2018
Winds: from the W (280 degrees) at 9 MPH (8 knots; 4.2 m/s)
Visibility: 6 miles (9 km)
Clouds: few clouds at 3000 feet AGL
Weather: no significant weather forecast for this period
Forecast for: LEMG (MALAGA (CIV/MIL), ES)
Text: TAF LEMG 242300Z 2500/2524 VRB03KT 9000 FEW030 TX21/2514Z TN15/2506Z
Forecast period: 0000 to 0800 UTC 25 April 2018
Forecast type: BECOMING: Conditions expected to become as follows by 0300 UTC 25 April 2018
Winds: from the W (280 degrees) at 9 MPH (8 knots; 4.2 m/s)
Visibility: 6 miles (9 km)
Clouds: few clouds at 3000 feet AGL
Weather: no significant weather forecast for this period
Forecast for: LEMG (MALAGA (CIV/MIL), ES)
Text: TAF LEMG 242300Z 2500/2524 VRB03KT 9000 FEW030 TX21/2514Z TN15/2506Z
Forecast period: 0800 UTC 25 April 2018 to 0000 UTC 26 April 2018
Forecast type: BECOMING: Conditions expected to become as follows by 1000 UTC 25 April 2018
Winds: variable direction winds at 3 MPH (3 knots; 1.6 m/s)
Visibility: 6 miles (9 km)
Clouds: few clouds at 3000 feet AGL
Weather: no significant weather forecast for this period
Forecast for: LEMG (MALAGA (CIV/MIL), ES)
Text: TAF LEMG 242300Z 2500/2524 VRB03KT 9000 FEW030 TX21/2514Z TN15/2506Z
Forecast period: 0800 UTC 25 April 2018 to 0000 UTC 26 April 2018
Forecast type: BECOMING: Conditions expected to become as follows by 1000 UTC 25 April 2018
Winds: variable direction winds at 3 MPH (3 knots; 1.6 m/s)
Visibility: 6 miles (9 km)
Clouds: few clouds at 3000 feet AGL
Weather: no significant weather forecast for this period
Forecast for: LEMG (MALAGA (CIV/MIL), ES)
Text: TAF LEMG 242300Z 2500/2524 VRB03KT 9000 FEW030 TX21/2514Z TN15/2506Z
Forecast period: 0600 to 2100 UTC 25 April 2018
Forecast type: TEMPORARY: The following changes expected for less than half the time period
Visibility: 2.49 miles (4.01 km)
Ceiling: 3500 feet AGL
Clouds: scattered clouds at 2000 feet AGL
broken clouds at 3500 feet AGL
Weather: SHRA  (rain showers)
Forecast for: LEMG (MALAGA (CIV/MIL), ES)
Text: TAF LEMG 242300Z 2500/2524 VRB03KT 9000 FEW030 TX21/2514Z TN15/2506Z
Forecast period: 0600 to 2100 UTC 25 April 2018
Forecast type: TEMPORARY: The following changes expected for less than half the time period
Visibility: 2.49 miles (4.01 km)
Ceiling: 3500 feet AGL
Clouds: scattered clouds at 2000 feet AGL
broken clouds at 3500 feet AGL
Weather: SHRA  (rain showers)

 MAPA DE AEROPUERTO

 INFORMACIÓN DE PISTA
Pista 12 Longitud 9022 ft Ancho 148 ft
Elevación 52 ft Umbral desplazado 0 ft Rumbo de pista 119
Pista 30 Longitud 9022 ft Ancho 148 ft
Elevación 31 ft Umbral desplazado 0 ft Rumbo de pista 299
Pista 13 Longitud 10500 ft Ancho 148 ft
Elevación 52 ft Umbral desplazado 0 ft Rumbo de pista 133
Pista 31 Longitud 10500 ft Ancho 148 ft
Elevación 31 ft Umbral desplazado 0 ft Rumbo de pista 313

 FRECUANCIAS DEL AEROPUERTO
Tipo A/D Nombre APP Frecuencia 123.85 MHZ
Tipo ATIS Nombre ATIS Frecuencia 120.375 MHZ
Tipo CLD Nombre CLR DEL Frecuencia 121.875 MHZ
Tipo GND Nombre GND-W Frecuencia 121.7 MHZ
Tipo GND Nombre GND-E Frecuencia 121.95 MHZ
Tipo TWR Nombre TWR-W (RWY Frecuencia 118.15 MHZ
Tipo TWR Nombre TWR-E (RWY Frecuencia 118.775 MHZ

 RADIO AYUDAS DEL AEROPUERTO
Tipo VOR-DME Nombre Martin Frecuencia 112600 KHZ
Tipo VOR-DME Nombre Malaga Frecuencia 112000 KHZ
Tipo VOR-DME Nombre Malaga Frecuencia 113550 KHZ
Tipo NDB Nombre Malaga Frecuencia 330 KHZ





VAM [v2.6.2]

Normativa | Spanair Virtual © 2017 | Customized by JZ © 2017 for Spanair Virtual